createdAt,value
2023-02-11T00:01:31.401Z,97767.41
2023-02-11T00:03:34.229Z,97792.03
2023-02-11T00:05:37.049Z,97725.94
2023-02-11T00:07:41.195Z,97788.69
2023-02-11T00:09:43.990Z,97778.66
2023-02-11T00:11:46.760Z,97789.19
2023-02-11T00:13:49.967Z,97780.56
2023-02-11T00:15:52.966Z,97780.72
2023-02-11T00:17:55.674Z,97778.63
2023-02-11T00:19:58.353Z,97770.31
2023-02-11T00:22:01.104Z,97777.53
2023-02-11T00:24:05.544Z,97776.56
2023-02-11T00:26:13.660Z,97812.81
2023-02-11T00:28:18.684Z,97782.66
2023-02-11T00:30:21.408Z,97746.91
2023-02-11T00:32:24.136Z,97778.63
2023-02-11T00:34:26.855Z,97776.13
2023-02-11T00:36:30.933Z,97735.06
2023-02-11T00:38:33.622Z,97783.31
2023-02-11T00:40:37.732Z,97709.34
2023-02-11T00:42:40.713Z,97786.56
2023-02-11T00:44:43.690Z,97649.38
2023-02-11T00:46:46.453Z,97779.31
2023-02-11T00:48:49.590Z,97775.84
2023-02-11T00:50:52.327Z,97776.25
2023-02-11T00:52:55.100Z,97720.69
2023-02-11T00:54:58.019Z,97767.59
2023-02-11T00:57:02.241Z,97773.31
2023-02-11T00:59:05.078Z,97760.94
2023-02-11T01:01:07.931Z,97645.03
2023-02-11T01:03:10.940Z,97760.69
2023-02-11T01:05:13.777Z,97688.50
2023-02-11T01:07:16.562Z,97763.47
2023-02-11T01:09:21.121Z,97748.13
2023-02-11T01:11:23.914Z,97771.25
2023-02-11T01:13:29.000Z,97689.53
2023-02-11T01:15:31.761Z,97756.72
2023-02-11T01:17:34.730Z,97758.44
2023-02-11T01:19:37.931Z,97761.22
2023-02-11T01:21:42.480Z,97761.09
2023-02-11T01:23:45.282Z,97694.94
2023-02-11T01:25:49.088Z,97751.38
2023-02-11T01:27:51.959Z,97757.31
2023-02-11T01:29:56.110Z,97757.16
2023-02-11T01:31:58.877Z,97731.16
2023-02-11T01:34:02.067Z,97745.22
2023-02-11T01:36:07.440Z,97689.13
2023-02-11T01:38:16.569Z,97738.44
2023-02-11T01:40:19.737Z,97740.25
2023-02-11T01:42:24.706Z,97686.38
2023-02-11T01:44:30.070Z,97654.97
2023-02-11T01:46:37.631Z,97735.09
2023-02-11T01:48:45.354Z,97666.44
2023-02-11T01:50:51.939Z,97714.81
2023-02-11T01:53:15.376Z,97719.81
2023-02-11T01:55:37.471Z,97727.28
2023-02-11T01:57:45.017Z,97722.53
2023-02-11T01:59:53.381Z,97646.00
2023-02-11T02:02:04.063Z,97719.72
2023-02-11T02:04:09.186Z,97699.56
2023-02-11T02:06:17.722Z,97725.25
2023-02-11T02:08:29.475Z,97700.00
2023-02-11T02:10:35.110Z,97705.56
2023-02-11T02:12:38.285Z,97676.34
2023-02-11T02:14:41.813Z,97697.94
2023-02-11T02:16:46.336Z,97702.88
2023-02-11T02:19:02.439Z,97699.16
2023-02-11T02:21:38.233Z,97701.22
2023-02-11T02:24:19.768Z,97708.28
2023-02-11T02:26:47.784Z,97679.69
2023-02-11T02:29:20.655Z,97690.81
2023-02-11T02:31:48.593Z,97691.31
2023-02-11T02:33:57.339Z,97693.38
2023-02-11T02:36:08.720Z,97671.09
2023-02-11T02:38:17.044Z,97683.09
2023-02-11T02:40:24.682Z,97678.50
2023-02-11T02:42:27.936Z,97618.28
2023-02-11T02:44:30.916Z,97681.63
2023-02-11T02:46:35.295Z,97556.31
2023-02-11T02:48:38.109Z,97595.41
2023-02-11T02:50:42.430Z,97680.13
2023-02-11T02:52:57.886Z,97674.84
2023-02-11T02:55:25.836Z,97683.88
2023-02-11T02:57:33.848Z,97679.00
2023-02-11T02:59:49.042Z,97672.34
2023-02-11T03:01:59.059Z,97672.88
2023-02-11T03:04:13.371Z,97672.31
2023-02-11T03:06:26.796Z,97654.34
2023-02-11T03:08:35.692Z,97630.09
2023-02-11T03:10:42.621Z,97650.94
2023-02-11T03:12:47.330Z,97665.28
2023-02-11T03:14:52.359Z,97665.41
2023-02-11T03:16:58.594Z,97670.00
2023-02-11T03:19:06.873Z,97644.38
2023-02-11T03:21:12.012Z,97639.25
2023-02-11T03:23:20.443Z,97675.53
2023-02-11T03:25:31.198Z,97670.56
2023-02-11T03:27:39.973Z,97662.66
2023-02-11T03:29:49.293Z,97658.34
2023-02-11T03:31:57.422Z,97657.38
2023-02-11T03:34:08.622Z,97657.78
2023-02-11T03:36:17.633Z,97664.28
2023-02-11T03:38:25.271Z,97659.72
2023-02-11T03:40:32.797Z,97550.31
2023-02-11T03:42:41.248Z,97652.03
2023-02-11T03:44:49.763Z,97645.81
2023-02-11T03:46:55.350Z,97450.31
2023-02-11T03:49:03.958Z,97665.50
2023-02-11T03:51:10.778Z,97681.31
2023-02-11T03:53:15.895Z,97679.66
2023-02-11T03:55:21.941Z,97688.38
2023-02-11T03:57:24.949Z,97693.78
2023-02-11T03:59:28.150Z,97691.72
2023-02-11T04:01:31.024Z,97674.19
2023-02-11T04:03:33.950Z,97682.91
2023-02-11T04:05:37.255Z,97606.78
2023-02-11T04:07:40.027Z,97647.66
2023-02-11T04:09:42.780Z,97551.09
2023-02-11T04:11:47.227Z,97652.16
2023-02-11T04:13:49.977Z,97653.31
2023-02-11T04:15:53.116Z,97655.56
2023-02-11T04:17:56.103Z,97481.03
2023-02-11T04:19:58.859Z,97647.66
2023-02-11T04:22:01.712Z,97656.66
2023-02-11T04:24:04.933Z,97651.03
2023-02-11T04:26:07.690Z,97650.00
2023-02-11T04:28:11.842Z,97657.25
2023-02-11T04:30:15.390Z,97626.59
2023-02-11T04:32:18.432Z,97629.34
2023-02-11T04:34:21.191Z,97666.75
2023-02-11T04:36:24.092Z,97559.44
2023-02-11T04:38:27.316Z,97652.69
2023-02-11T04:40:30.121Z,97650.44
2023-02-11T04:42:33.068Z,97670.25
2023-02-11T04:44:37.299Z,97657.91
2023-02-11T04:46:40.050Z,97672.84
2023-02-11T04:48:42.818Z,97686.78
2023-02-11T04:50:45.602Z,97678.88
2023-02-11T04:52:48.402Z,97671.81
2023-02-11T04:54:51.157Z,97677.09
2023-02-11T04:56:54.009Z,97683.78
2023-02-11T04:58:56.776Z,97673.94
2023-02-11T05:01:08.501Z,97669.09
2023-02-11T05:03:11.430Z,97629.75
2023-02-11T05:05:14.181Z,97678.69
2023-02-11T05:07:17.215Z,97673.28
2023-02-11T05:09:20.073Z,97635.06
2023-02-11T05:11:26.212Z,97657.00
2023-02-11T05:13:29.360Z,97671.34
2023-02-11T05:15:32.429Z,97674.13
2023-02-11T05:17:36.612Z,97665.53
2023-02-11T05:19:39.505Z,97497.44
2023-02-11T05:21:56.668Z,97678.88
2023-02-11T05:24:04.660Z,97648.06
2023-02-11T05:26:08.630Z,97659.44
2023-02-11T05:28:11.624Z,97653.91
2023-02-11T05:30:14.858Z,97657.66
2023-02-11T05:32:17.658Z,97606.47
2023-02-11T05:34:21.769Z,97652.75
2023-02-11T05:36:24.564Z,97640.81
2023-02-11T05:38:27.497Z,97576.34
2023-02-11T05:40:30.237Z,97643.06
2023-02-11T05:42:33.346Z,97624.16
2023-02-11T05:44:36.267Z,97536.09
2023-02-11T05:46:39.411Z,97571.81
2023-02-11T05:48:42.222Z,97621.25
2023-02-11T05:50:46.640Z,97611.38
2023-02-11T05:52:49.594Z,97630.84
2023-02-11T05:54:52.625Z,97631.91
2023-02-11T05:56:55.394Z,97631.34
2023-02-11T05:58:59.712Z,97588.31
2023-02-11T06:01:02.512Z,97613.88
2023-02-11T06:03:05.479Z,97594.72
2023-02-11T06:05:09.183Z,97604.31
2023-02-11T06:07:13.332Z,97515.28
2023-02-11T06:09:16.121Z,97580.28
2023-02-11T06:11:20.231Z,97549.59
2023-02-11T06:13:23.072Z,97555.28
2023-02-11T06:15:25.847Z,97590.00
2023-02-11T06:17:31.649Z,97562.09
2023-02-11T06:19:34.557Z,97595.97
2023-02-11T06:21:43.923Z,97530.13
2023-02-11T06:23:49.214Z,97594.41
2023-02-11T06:25:52.365Z,97589.41
2023-02-11T06:27:55.548Z,97593.88
2023-02-11T06:29:58.545Z,97609.03
2023-02-11T06:32:01.654Z,97629.69
2023-02-11T06:34:05.039Z,97617.50
2023-02-11T06:36:14.447Z,97628.91
2023-02-11T06:38:17.236Z,97613.34
2023-02-11T06:40:21.733Z,97642.91
2023-02-11T06:42:24.646Z,97636.94
2023-02-11T06:44:27.444Z,97630.09
2023-02-11T06:46:30.434Z,97645.81
2023-02-11T06:48:33.269Z,97644.41
2023-02-11T06:50:36.042Z,97599.97
2023-02-11T06:52:38.890Z,97654.13
2023-02-11T06:54:41.648Z,97643.56
2023-02-11T06:56:45.738Z,97639.94
2023-02-11T06:58:49.143Z,97645.28
2023-02-11T07:00:52.259Z,97627.06
2023-02-11T07:02:55.046Z,97559.16
2023-02-11T07:04:57.920Z,97619.81
2023-02-11T07:07:00.678Z,97632.31
2023-02-11T07:09:03.483Z,97557.19
2023-02-11T07:11:11.713Z,97511.38
2023-02-11T07:13:15.818Z,97647.72
2023-02-11T07:15:18.882Z,97644.78
2023-02-11T07:17:21.620Z,97645.47
2023-02-11T07:19:24.434Z,97643.50
2023-02-11T07:21:27.364Z,97642.97
2023-02-11T07:23:30.203Z,97651.59
2023-02-11T07:25:33.134Z,97501.91
2023-02-11T07:27:36.027Z,97609.91
2023-02-11T07:29:40.179Z,97648.78
2023-02-11T07:31:43.188Z,97585.16
2023-02-11T07:33:46.699Z,97664.75
2023-02-11T07:35:49.775Z,97655.38
2023-02-11T07:37:52.711Z,97601.06
2023-02-11T07:39:55.494Z,97663.88
2023-02-11T07:41:58.377Z,97613.91
2023-02-11T07:44:03.761Z,97639.00
2023-02-11T07:46:11.159Z,97559.63
2023-02-11T07:48:13.880Z,97608.59
2023-02-11T07:50:17.876Z,97634.75
2023-02-11T07:52:20.903Z,97655.44
2023-02-11T07:54:23.719Z,97658.00
2023-02-11T07:56:26.973Z,97616.91
2023-02-11T07:58:29.714Z,97675.78
2023-02-11T08:00:32.452Z,97683.97
2023-02-11T08:02:36.593Z,97641.03
2023-02-11T08:04:39.553Z,97686.63
2023-02-11T08:06:43.956Z,97678.56
2023-02-11T08:08:47.827Z,97679.13
2023-02-11T08:10:50.759Z,97667.00
2023-02-11T08:12:54.625Z,97675.06
2023-02-11T08:14:57.410Z,97681.22
2023-02-11T08:17:00.262Z,97672.34
2023-02-11T08:19:07.227Z,97662.53
2023-02-11T08:21:11.204Z,97661.31
2023-02-11T08:23:13.934Z,97658.22
2023-02-11T08:25:16.885Z,97645.28
2023-02-11T08:27:19.622Z,97643.75
2023-02-11T08:29:22.376Z,97652.69
2023-02-11T08:31:28.033Z,97633.31
2023-02-11T08:33:30.843Z,97648.28
2023-02-11T08:35:36.971Z,97637.06
2023-02-11T08:37:39.716Z,97643.59
2023-02-11T08:39:42.456Z,97633.28
2023-02-11T08:41:45.680Z,97499.19
2023-02-11T08:43:49.360Z,97641.81
2023-02-11T08:45:52.511Z,97633.66
2023-02-11T08:47:55.603Z,97635.06
2023-02-11T08:49:58.314Z,97599.09
2023-02-11T08:52:04.180Z,97632.66
2023-02-11T08:54:09.513Z,97647.56
2023-02-11T08:56:13.753Z,97649.16
2023-02-11T08:58:19.039Z,97644.22
2023-02-11T09:00:22.662Z,97650.41
2023-02-11T09:02:25.534Z,97658.03
2023-02-11T09:04:28.427Z,97649.06
2023-02-11T09:06:31.604Z,97592.56
2023-02-11T09:08:37.007Z,97644.78
2023-02-11T09:10:39.929Z,97645.13
2023-02-11T09:12:42.700Z,97638.66
2023-02-11T09:14:45.472Z,97645.81
2023-02-11T09:16:49.019Z,97637.00
2023-02-11T09:18:52.339Z,97581.00
2023-02-11T09:20:55.995Z,97655.13
2023-02-11T09:22:59.956Z,97650.47
2023-02-11T09:25:04.051Z,97647.78
2023-02-11T09:27:07.120Z,97645.94
2023-02-11T09:29:10.062Z,97646.25
2023-02-11T09:31:15.918Z,97643.41
2023-02-11T09:33:18.769Z,97597.56
2023-02-11T09:35:21.545Z,97642.34
2023-02-11T09:37:24.307Z,97572.91
2023-02-11T09:39:27.520Z,97639.44
2023-02-11T09:42:00.688Z,97645.81
2023-02-11T09:44:07.121Z,97644.72
2023-02-11T09:46:14.473Z,97637.09
2023-02-11T09:48:19.647Z,97638.44
2023-02-11T09:50:27.007Z,97653.72
2023-02-11T09:52:41.244Z,97643.34
2023-02-11T09:54:55.053Z,97606.47
2023-02-11T09:56:59.269Z,97650.59
2023-02-11T09:59:02.132Z,97640.91
2023-02-11T10:01:10.974Z,97629.59
2023-02-11T10:03:39.587Z,97633.34
2023-02-11T10:06:02.047Z,97638.03
2023-02-11T10:08:15.833Z,97601.88
2023-02-11T10:10:34.227Z,97640.88
2023-02-11T10:12:53.875Z,97633.03
2023-02-11T10:15:18.489Z,97638.13
2023-02-11T10:17:30.653Z,97635.03
2023-02-11T10:19:49.113Z,97637.78
2023-02-11T10:22:04.587Z,97645.69
2023-02-11T10:24:13.326Z,97641.84
2023-02-11T10:26:18.655Z,97639.00
2023-02-11T10:28:25.621Z,97651.72
2023-02-11T10:30:32.158Z,97642.31
2023-02-11T10:32:43.246Z,97646.97
2023-02-11T10:34:45.971Z,97636.69
2023-02-11T10:36:48.657Z,97616.25
2023-02-11T10:38:51.547Z,97603.34
2023-02-11T10:40:54.342Z,97613.31
2023-02-11T10:43:01.894Z,97624.56
2023-02-11T10:45:07.881Z,97633.88
2023-02-11T10:47:16.874Z,97606.50
2023-02-11T10:49:41.307Z,97628.19
2023-02-11T10:51:43.994Z,97625.91
2023-02-11T10:53:47.468Z,97622.69
2023-02-11T10:55:52.391Z,97559.78
2023-02-11T10:57:58.799Z,97617.00
2023-02-11T11:00:08.994Z,97614.47
2023-02-11T11:02:24.554Z,97615.06
2023-02-11T11:04:41.348Z,97605.06
2023-02-11T11:06:44.136Z,97589.00
2023-02-11T11:08:48.462Z,97597.50
2023-02-11T11:11:06.121Z,97553.31
2023-02-11T11:13:25.924Z,97588.06
2023-02-11T11:15:32.272Z,97591.63
2023-02-11T11:17:35.081Z,97588.09
2023-02-11T11:19:39.133Z,97583.78
2023-02-11T11:21:44.360Z,97576.31
2023-02-11T11:23:57.036Z,97589.09
2023-02-11T11:26:05.006Z,97564.25
2023-02-11T11:28:18.755Z,97586.53
2023-02-11T11:30:23.617Z,97572.34
2023-02-11T11:32:32.347Z,97587.44
2023-02-11T11:34:39.305Z,97592.47
2023-02-11T11:36:42.199Z,97591.91
2023-02-11T11:38:50.230Z,97585.00
2023-02-11T11:41:17.901Z,97560.25
2023-02-11T11:43:23.218Z,97581.97
2023-02-11T11:45:27.866Z,97581.13
2023-02-11T11:47:37.170Z,97578.72
2023-02-11T11:49:46.520Z,97579.59
2023-02-11T11:51:56.116Z,97557.13
2023-02-11T11:54:02.438Z,97570.53
2023-02-11T11:56:07.941Z,97569.53
2023-02-11T11:58:16.048Z,97574.91
2023-02-11T12:00:21.959Z,97572.69
2023-02-11T12:02:54.973Z,97573.25
2023-02-11T12:05:04.396Z,97570.72
2023-02-11T12:07:18.709Z,97565.06
2023-02-11T12:09:28.857Z,97573.09
2023-02-11T12:11:40.220Z,97506.97
2023-02-11T12:13:58.690Z,97575.72
2023-02-11T12:16:11.037Z,97573.78
2023-02-11T12:18:33.255Z,97573.78
2023-02-11T12:20:44.875Z,97567.78
2023-02-11T12:23:02.193Z,97550.63
2023-02-11T12:25:26.070Z,97574.38
2023-02-11T12:27:43.810Z,97566.09
2023-02-11T12:30:01.395Z,97562.19
2023-02-11T12:32:18.615Z,97561.47
2023-02-11T12:34:43.019Z,97565.31
2023-02-11T12:37:07.845Z,97562.44
2023-02-11T12:39:24.882Z,97562.56
2023-02-11T12:42:04.637Z,97561.53
2023-02-11T12:44:11.660Z,97568.78
2023-02-11T12:46:39.649Z,97551.28
2023-02-11T12:49:07.096Z,97542.13
2023-02-11T12:51:22.578Z,97545.31
2023-02-11T12:53:40.052Z,97540.59
2023-02-11T12:55:47.908Z,97544.06
2023-02-11T12:57:53.339Z,97543.81
2023-02-11T13:00:04.201Z,97553.19
2023-02-11T13:02:20.014Z,97544.00
2023-02-11T13:04:28.173Z,97550.44
2023-02-11T13:06:38.804Z,97491.34
2023-02-11T13:08:46.943Z,97542.56
2023-02-11T13:10:54.992Z,97538.22
2023-02-11T13:13:17.125Z,97525.66
2023-02-11T13:15:20.256Z,97545.31
2023-02-11T13:17:29.863Z,97505.81
2023-02-11T13:19:38.864Z,97548.94
2023-02-11T13:21:57.036Z,97545.19
2023-02-11T13:24:09.052Z,97542.59
2023-02-11T13:26:23.682Z,97530.22
2023-02-11T13:28:41.344Z,97523.81
2023-02-11T13:30:47.591Z,97524.72
2023-02-11T13:33:21.991Z,97498.38
2023-02-11T13:35:29.609Z,97523.09
2023-02-11T13:37:38.147Z,97440.72
2023-02-11T13:39:40.967Z,97524.00
2023-02-11T13:41:45.202Z,97521.38
2023-02-11T13:44:00.582Z,97501.50
2023-02-11T13:46:05.568Z,97513.81
2023-02-11T13:48:18.570Z,97522.13
2023-02-11T13:50:25.010Z,97508.81
2023-02-11T13:52:31.800Z,97519.91
2023-02-11T13:54:39.831Z,97442.06
2023-02-11T13:56:44.058Z,97530.66
2023-02-11T13:58:49.700Z,97531.66
2023-02-11T14:00:53.066Z,97524.25
2023-02-11T14:03:44.848Z,97531.66
2023-02-11T14:06:29.933Z,97402.09
2023-02-11T14:08:50.484Z,97534.75
2023-02-11T14:10:55.952Z,97485.69
2023-02-11T14:13:23.026Z,97533.75
2023-02-11T14:15:38.927Z,97535.63
2023-02-11T14:17:41.646Z,97533.53
2023-02-11T14:19:48.928Z,97520.66
2023-02-11T14:21:51.702Z,97522.84
2023-02-11T14:23:55.986Z,97523.25
2023-02-11T14:26:24.154Z,97522.84
2023-02-11T14:28:34.166Z,97514.22
2023-02-11T14:30:47.019Z,97519.94
2023-02-11T14:33:12.992Z,97520.13
2023-02-11T14:35:24.983Z,97519.59
2023-02-11T14:37:49.968Z,97523.75
2023-02-11T14:40:05.878Z,97502.19
2023-02-11T14:42:18.975Z,97523.56
2023-02-11T14:44:25.551Z,97476.91
2023-02-11T14:46:32.845Z,97481.16
2023-02-11T14:48:38.872Z,97518.84
2023-02-11T14:50:46.562Z,97519.31
2023-02-11T14:52:51.114Z,97522.84
2023-02-11T14:55:03.004Z,97525.63
2023-02-11T14:57:14.699Z,97520.03
2023-02-11T14:59:20.140Z,97488.72
2023-02-11T15:01:32.621Z,97522.63
2023-02-11T15:03:37.056Z,97473.22
2023-02-11T15:05:39.870Z,97514.94
2023-02-11T15:07:45.968Z,97513.56
2023-02-11T15:09:52.209Z,97519.19
2023-02-11T15:11:56.185Z,97480.75
2023-02-11T15:14:08.042Z,97524.44
2023-02-11T15:16:11.421Z,97539.22
2023-02-11T15:18:22.763Z,97540.22
2023-02-11T15:20:27.961Z,97544.03
2023-02-11T15:22:33.851Z,97538.69
2023-02-11T15:24:39.024Z,97526.13
2023-02-11T15:26:41.826Z,97537.50
2023-02-11T15:28:51.945Z,97548.09
2023-02-11T15:31:01.083Z,97546.94
2023-02-11T15:33:06.801Z,97540.47
2023-02-11T15:35:13.646Z,97467.84
2023-02-11T15:37:21.906Z,97538.13
2023-02-11T15:39:32.780Z,97557.53
2023-02-11T15:41:38.382Z,97550.94
2023-02-11T15:43:43.040Z,97556.25
2023-02-11T15:45:54.515Z,97561.81
2023-02-11T15:48:03.471Z,97557.88
2023-02-11T15:50:07.837Z,97557.41
2023-02-11T15:52:10.650Z,97491.06
2023-02-11T15:54:19.937Z,97546.63
2023-02-11T15:56:26.098Z,97544.59
2023-02-11T15:58:29.021Z,97546.00
2023-02-11T16:00:36.770Z,97563.31
2023-02-11T16:02:45.066Z,97559.47
2023-02-11T16:04:54.385Z,97570.28
2023-02-11T16:06:57.611Z,97557.34
2023-02-11T16:09:03.159Z,97549.41
2023-02-11T16:11:09.078Z,97496.47
2023-02-11T16:13:20.728Z,97556.81
2023-02-11T16:15:45.175Z,97236.72
2023-02-11T16:17:48.013Z,97360.81
2023-02-11T16:19:54.053Z,97572.28
2023-02-11T16:21:59.161Z,97573.25
2023-02-11T16:24:02.511Z,97569.00
2023-02-11T16:26:08.865Z,97333.28
2023-02-11T16:28:16.289Z,97575.13
2023-02-11T16:30:28.579Z,97495.81
2023-02-11T16:32:32.128Z,97572.97
2023-02-11T16:34:34.896Z,97471.59
2023-02-11T16:36:39.001Z,97578.31
2023-02-11T16:38:41.952Z,97581.59
2023-02-11T16:40:49.066Z,97584.50
2023-02-11T16:42:53.319Z,97591.59
2023-02-11T16:44:56.095Z,97592.78
2023-02-11T16:47:00.817Z,97598.50
2023-02-11T16:49:11.255Z,97606.88
2023-02-11T16:51:14.188Z,97602.81
2023-02-11T16:53:22.574Z,97495.91
2023-02-11T16:55:25.351Z,97605.22
2023-02-11T16:57:30.117Z,97623.06
2023-02-11T16:59:33.255Z,97628.69
2023-02-11T17:01:38.266Z,97604.84
2023-02-11T17:03:41.476Z,97631.44
2023-02-11T17:05:55.056Z,97611.81
2023-02-11T17:07:58.674Z,97589.47
2023-02-11T17:10:02.929Z,97610.25
2023-02-11T17:12:06.150Z,97622.59
2023-02-11T17:14:08.930Z,97617.41
2023-02-11T17:16:18.210Z,97636.84
2023-02-11T17:18:21.273Z,97642.81
2023-02-11T17:20:24.193Z,97635.75
2023-02-11T17:22:26.945Z,97651.28
2023-02-11T17:24:29.680Z,97645.50
2023-02-11T17:26:35.334Z,97621.97
2023-02-11T17:28:38.223Z,97623.31
2023-02-11T17:30:43.481Z,97668.06
2023-02-11T17:32:47.249Z,97659.66
2023-02-11T17:34:50.055Z,97662.69
2023-02-11T17:36:52.865Z,97656.72
2023-02-11T17:38:55.975Z,97660.47
2023-02-11T17:40:59.873Z,97654.97
2023-02-11T17:43:04.198Z,97654.63
2023-02-11T17:45:08.469Z,97653.91
2023-02-11T17:47:11.378Z,97657.25
2023-02-11T17:49:14.103Z,97657.91
2023-02-11T17:51:26.089Z,97612.72
2023-02-11T17:53:28.881Z,97655.59
2023-02-11T17:55:34.242Z,97661.06
2023-02-11T17:57:37.117Z,97666.53
2023-02-11T17:59:41.508Z,97668.84
2023-02-11T18:01:44.972Z,97671.53
2023-02-11T18:03:47.972Z,97637.38
2023-02-11T18:05:51.176Z,97676.22
2023-02-11T18:07:55.480Z,97673.88
2023-02-11T18:09:58.222Z,97630.06
2023-02-11T18:12:00.985Z,97631.88
2023-02-11T18:14:07.679Z,97686.53
2023-02-11T18:16:15.797Z,97660.31
2023-02-11T18:18:18.841Z,97494.97
2023-02-11T18:20:21.806Z,97688.25
2023-02-11T18:22:25.032Z,97697.41
2023-02-11T18:24:27.958Z,97654.06
2023-02-11T18:26:30.795Z,97676.00
2023-02-11T18:28:33.607Z,97701.22
2023-02-11T18:30:36.401Z,97701.72
2023-02-11T18:32:40.535Z,97693.25
2023-02-11T18:34:43.640Z,97670.00
2023-02-11T18:36:46.329Z,97685.09
2023-02-11T18:38:49.505Z,97699.03
2023-02-11T18:40:52.768Z,97735.31
2023-02-11T18:42:55.459Z,97711.53
2023-02-11T18:44:58.194Z,97686.63
2023-02-11T18:47:01.090Z,97705.56
2023-02-11T18:49:05.146Z,97708.19
2023-02-11T18:51:10.771Z,97704.34
2023-02-11T18:53:15.663Z,97704.13
2023-02-11T18:55:23.472Z,97716.78
2023-02-11T18:57:26.536Z,97715.44
2023-02-11T18:59:29.792Z,97653.38
2023-02-11T19:01:34.358Z,97692.22
2023-02-11T19:03:37.792Z,97722.91
2023-02-11T19:05:46.415Z,97721.06
2023-02-11T19:07:49.685Z,97722.53
2023-02-11T19:09:52.519Z,97720.88
2023-02-11T19:11:57.098Z,97721.91
2023-02-11T19:13:59.832Z,97715.75
2023-02-11T19:16:08.226Z,97729.25
2023-02-11T19:18:13.163Z,97730.97
2023-02-11T19:20:16.009Z,97710.91
2023-02-11T19:22:20.352Z,97717.34
2023-02-11T19:24:24.221Z,97650.19
2023-02-11T19:26:27.257Z,97722.44
2023-02-11T19:28:30.798Z,97711.75
2023-02-11T19:30:33.615Z,97717.47
2023-02-11T19:32:36.356Z,97715.13
2023-02-11T19:34:41.659Z,97670.78
2023-02-11T19:36:44.739Z,97718.69
2023-02-11T19:38:48.834Z,97715.16
2023-02-11T19:40:56.648Z,97680.53
2023-02-11T19:42:59.508Z,97710.09
2023-02-11T19:45:02.265Z,97700.75
2023-02-11T19:47:06.759Z,97675.53
2023-02-11T19:49:10.100Z,97613.50
2023-02-11T19:51:13.406Z,97700.31
2023-02-11T19:53:16.290Z,97700.78
2023-02-11T19:55:20.493Z,97680.13
2023-02-11T19:57:23.175Z,97697.34
2023-02-11T19:59:26.209Z,97706.81
2023-02-11T20:01:29.099Z,97695.69
2023-02-11T20:03:31.918Z,97692.50
2023-02-11T20:05:35.184Z,97693.72
2023-02-11T20:07:37.967Z,97702.75
2023-02-11T20:09:42.518Z,97698.22
2023-02-11T20:11:46.707Z,97692.34
2023-02-11T20:13:49.635Z,97672.03
2023-02-11T20:15:52.678Z,97672.34
2023-02-11T20:17:55.643Z,97693.38
2023-02-11T20:19:58.397Z,97696.00
2023-02-11T20:22:01.187Z,97694.09
2023-02-11T20:24:04.078Z,97691.72
2023-02-11T20:26:08.602Z,97688.06
2023-02-11T20:28:12.723Z,97694.41
2023-02-11T20:30:17.004Z,97669.31
2023-02-11T20:32:19.768Z,97691.84
2023-02-11T20:34:22.730Z,97688.34
2023-02-11T20:36:27.267Z,97698.63
2023-02-11T20:38:30.357Z,97700.31
2023-02-11T20:40:34.277Z,97706.38
2023-02-11T20:42:37.105Z,97701.03
2023-02-11T20:44:41.264Z,97678.97
2023-02-11T20:46:46.983Z,97691.53
2023-02-11T20:48:50.146Z,97616.31
2023-02-11T20:50:52.885Z,97707.66
2023-02-11T20:52:55.621Z,97701.50
2023-02-11T20:54:58.548Z,97700.47
2023-02-11T20:57:01.581Z,97703.97
2023-02-11T20:59:06.127Z,97667.38
2023-02-11T21:01:13.948Z,97674.22
2023-02-11T21:03:16.720Z,97713.81
2023-02-11T21:05:19.899Z,97681.88
2023-02-11T21:07:22.729Z,97710.66
2023-02-11T21:09:27.998Z,97691.53
2023-02-11T21:11:31.375Z,97714.50
2023-02-11T21:13:34.286Z,97620.06
2023-02-11T21:15:37.006Z,97631.44
2023-02-11T21:17:41.161Z,97734.19
2023-02-11T21:19:44.317Z,97743.16
2023-02-11T21:21:47.077Z,97693.41
2023-02-11T21:23:50.208Z,97628.09
2023-02-11T21:25:54.960Z,97698.53
2023-02-11T21:27:57.877Z,97633.50
2023-02-11T21:30:01.285Z,97712.19
2023-02-11T21:32:04.093Z,97717.63
2023-02-11T21:34:08.616Z,97717.91
2023-02-11T21:36:11.903Z,97672.38
2023-02-11T21:38:14.738Z,97729.44
2023-02-11T21:40:17.986Z,97717.72
2023-02-11T21:42:20.752Z,97716.38
2023-02-11T21:44:23.507Z,97716.03
2023-02-11T21:46:26.300Z,97709.34
2023-02-11T21:48:29.079Z,97719.97
2023-02-11T21:50:33.158Z,97717.00
2023-02-11T21:52:35.972Z,97718.53
2023-02-11T21:54:38.654Z,97728.66
2023-02-11T21:56:41.529Z,97711.41
2023-02-11T21:58:44.552Z,97732.50
2023-02-11T22:00:47.311Z,97712.63
2023-02-11T22:02:50.406Z,97706.25
2023-02-11T22:04:56.733Z,97722.56
2023-02-11T22:07:02.839Z,97669.38
2023-02-11T22:09:07.585Z,97630.34
2023-02-11T22:11:12.221Z,97727.41
2023-02-11T22:13:15.014Z,97724.59
2023-02-11T22:15:17.894Z,97723.56
2023-02-11T22:17:20.718Z,97731.25
2023-02-11T22:19:24.963Z,97742.69
2023-02-11T22:21:28.046Z,97731.09
2023-02-11T22:23:32.954Z,97721.25
2023-02-11T22:25:37.661Z,97663.59
2023-02-11T22:27:40.444Z,97724.25
2023-02-11T22:29:43.506Z,97728.59
2023-02-11T22:31:46.378Z,97726.94
2023-02-11T22:33:49.857Z,97687.53
2023-02-11T22:35:59.023Z,97738.59
2023-02-11T22:38:01.908Z,97752.53
2023-02-11T22:40:07.209Z,97734.91
2023-02-11T22:42:10.215Z,97693.50
2023-02-11T22:44:13.697Z,97742.19
2023-02-11T22:46:18.922Z,97749.69
2023-02-11T22:48:23.207Z,97748.88
2023-02-11T22:50:26.039Z,97720.59
2023-02-11T22:52:28.948Z,97754.38
2023-02-11T22:54:32.142Z,97746.88
2023-02-11T22:56:36.601Z,97717.78
2023-02-11T22:58:39.428Z,97621.22
2023-02-11T23:00:42.981Z,97684.72
2023-02-11T23:02:45.848Z,97753.84
2023-02-11T23:04:49.996Z,97756.53
2023-02-11T23:06:52.809Z,97717.28
2023-02-11T23:08:56.039Z,97746.03
2023-02-11T23:11:04.637Z,97741.03
2023-02-11T23:13:10.282Z,97754.84
2023-02-11T23:15:13.022Z,97755.31
2023-02-11T23:17:15.783Z,97706.97
2023-02-11T23:19:18.966Z,97760.16
2023-02-11T23:21:23.835Z,97684.53
2023-02-11T23:23:26.710Z,97757.16
2023-02-11T23:25:29.789Z,97754.13
2023-02-11T23:27:32.549Z,97762.84
2023-02-11T23:29:36.653Z,97754.22
2023-02-11T23:31:43.262Z,97753.53
2023-02-11T23:33:47.199Z,97724.28
2023-02-11T23:35:50.042Z,97736.91
2023-02-11T23:37:54.106Z,97724.63
2023-02-11T23:39:56.826Z,97581.16
2023-02-11T23:41:59.821Z,97641.78
2023-02-11T23:44:02.581Z,97699.19
2023-02-11T23:46:07.524Z,97751.03
2023-02-11T23:48:10.464Z,97745.53
2023-02-11T23:50:13.407Z,97744.50
2023-02-11T23:52:16.408Z,97752.16
2023-02-11T23:54:19.160Z,97694.31
2023-02-11T23:56:23.588Z,97743.56
2023-02-11T23:58:26.453Z,97644.16
